createdAt,value
2023-09-04T00:00:16.232Z,101389.41
2023-09-04T00:02:49.942Z,101381.12
2023-09-04T00:05:21.021Z,101376.63
2023-09-04T00:07:51.664Z,101372.47
2023-09-04T00:10:22.827Z,101368.67
2023-09-04T00:12:53.352Z,101370.35
2023-09-04T00:15:23.896Z,101372.73
2023-09-04T00:17:54.418Z,101373.20
2023-09-04T00:20:25.722Z,101377.33
2023-09-04T00:22:56.926Z,101379.56
2023-09-04T00:25:27.454Z,101373.47
2023-09-04T00:27:59.251Z,101369.66
2023-09-04T00:30:29.883Z,101363.95
2023-09-04T00:33:00.647Z,101369.30
2023-09-04T00:35:31.151Z,101382.47
2023-09-04T00:38:01.649Z,101382.83
2023-09-04T00:45:16.955Z,101378.14
2023-09-04T00:47:48.469Z,101391.08
2023-09-04T00:50:22.263Z,101390.38
2023-09-04T00:52:55.099Z,101390.72
2023-09-04T00:55:26.289Z,101392.80
2023-09-04T00:57:57.815Z,101395.05
2023-09-04T01:00:29.682Z,101395.22
2023-09-04T01:03:04.317Z,101392.27
2023-09-04T01:05:35.097Z,101383.95
2023-09-04T01:08:06.790Z,101375.83
2023-09-04T01:10:41.084Z,101375.67
2023-09-04T01:13:19.062Z,101372.55
2023-09-04T01:15:49.972Z,101374.48
2023-09-04T01:18:21.857Z,101366.84
2023-09-04T01:21:04.375Z,101363.73
2023-09-04T01:23:36.410Z,101358.73
2023-09-04T01:26:14.108Z,101355.44
2023-09-04T01:28:56.879Z,101356.10
2023-09-04T01:31:31.837Z,101358.33
2023-09-04T01:34:09.513Z,101353.95
2023-09-04T01:36:41.289Z,101352.36
2023-09-04T01:39:12.774Z,101354.40
2023-09-04T01:41:43.283Z,101354.88
2023-09-04T01:44:14.432Z,101358.99
2023-09-04T01:46:45.694Z,101370.38
2023-09-04T01:49:16.299Z,101373.30
2023-09-04T01:51:46.816Z,101375.02
2023-09-04T01:54:17.510Z,101373.28
2023-09-04T01:56:47.942Z,101370.86
2023-09-04T01:59:18.506Z,101373.80
2023-09-04T02:01:49.063Z,101367.06
2023-09-04T02:04:19.649Z,101363.60
2023-09-04T02:06:50.277Z,101365.98
2023-09-04T02:09:20.722Z,101371.67
2023-09-04T02:11:51.176Z,101378.73
2023-09-04T02:14:22.105Z,101380.44
2023-09-04T02:16:52.917Z,101379.89
2023-09-04T02:19:23.548Z,101381.61
2023-09-04T02:21:54.007Z,101385.06
2023-09-04T02:24:24.487Z,101382.80
2023-09-04T02:26:55.182Z,101384.36
2023-09-04T02:29:25.997Z,101380.70
2023-09-04T02:31:58.417Z,101378.95
2023-09-04T02:34:28.962Z,101382.55
2023-09-04T02:37:00.436Z,101371.11
2023-09-04T02:39:31.710Z,101366.59
2023-09-04T02:42:02.172Z,101363.81
2023-09-04T02:44:32.937Z,101359.84
2023-09-04T02:47:03.472Z,101355.64
2023-09-04T02:49:34.196Z,101350.95
2023-09-04T02:52:04.853Z,101352.48
2023-09-04T02:54:35.314Z,101357.30
2023-09-04T02:57:06.138Z,101366.13
2023-09-04T02:59:38.095Z,101369.76
2023-09-04T03:02:08.721Z,101373.36
2023-09-04T03:04:39.307Z,101373.01
2023-09-04T03:07:10.508Z,101372.82
2023-09-04T03:09:41.040Z,101383.01
2023-09-04T03:12:11.762Z,101382.47
2023-09-04T03:14:42.447Z,101386.26
2023-09-04T03:17:12.937Z,101392.98
2023-09-04T03:19:43.432Z,101396.92
2023-09-04T03:22:13.942Z,101395.66
2023-09-04T03:24:44.504Z,101395.45
2023-09-04T03:27:15.098Z,101395.94
2023-09-04T03:29:46.502Z,101400.23
2023-09-04T03:32:17.328Z,101401.92
2023-09-04T03:34:48.059Z,101402.44
2023-09-04T03:37:18.720Z,101401.39
2023-09-04T03:39:49.212Z,101393.95
2023-09-04T03:42:20.968Z,101393.93
2023-09-04T03:44:52.081Z,101398.24
2023-09-04T03:47:22.523Z,101396.69
2023-09-04T03:49:53.068Z,101397.55
2023-09-04T03:52:23.584Z,101394.78
2023-09-04T03:54:54.337Z,101394.95
2023-09-04T03:57:24.931Z,101393.91
2023-09-04T03:59:58.187Z,101398.55
2023-09-04T04:02:28.853Z,101401.64
2023-09-04T04:04:59.453Z,101405.45
2023-09-04T04:07:29.972Z,101407.52
2023-09-04T04:10:00.766Z,101403.55
2023-09-04T04:12:32.465Z,101396.66
2023-09-04T04:15:07.205Z,101398.58
2023-09-04T04:17:38.823Z,101396.69
2023-09-04T04:20:12.013Z,101397.23
2023-09-04T04:22:43.282Z,101401.20
2023-09-04T04:25:13.855Z,101410.16
2023-09-04T04:27:45.538Z,101415.11
2023-09-04T04:30:14.963Z,101420.69
2023-09-04T04:32:45.468Z,101429.88
2023-09-04T04:35:16.219Z,101435.50
2023-09-04T04:37:46.698Z,101431.39
2023-09-04T04:40:23.088Z,101432.34
2023-09-04T04:42:53.938Z,101437.61
2023-09-04T04:45:24.450Z,101438.59
2023-09-04T04:47:55.106Z,101443.38
2023-09-04T04:50:27.216Z,101445.56
2023-09-04T04:52:57.718Z,101455.39
2023-09-04T04:55:28.860Z,101463.85
2023-09-04T04:57:59.390Z,101467.48
2023-09-04T05:00:29.924Z,101471.70
2023-09-04T05:03:00.414Z,101473.27
2023-09-04T05:05:31.170Z,101474.69
2023-09-04T05:08:02.117Z,101479.04
2023-09-04T05:10:32.641Z,101477.35
2023-09-04T05:13:03.318Z,101481.00
2023-09-04T05:15:33.870Z,101482.40
2023-09-04T05:18:05.265Z,101480.19
2023-09-04T05:20:40.045Z,101475.89
2023-09-04T05:23:10.625Z,101475.04
2023-09-04T05:25:48.775Z,101477.48
2023-09-04T05:28:19.412Z,101472.48
2023-09-04T05:30:50.115Z,101467.81
2023-09-04T05:33:20.705Z,101465.89
2023-09-04T05:35:58.916Z,101464.33
2023-09-04T05:38:29.406Z,101467.60
2023-09-04T05:41:00.299Z,101471.39
2023-09-04T05:43:30.861Z,101470.83
2023-09-04T05:46:01.720Z,101474.13
2023-09-04T05:48:32.768Z,101480.16
2023-09-04T05:51:04.916Z,101483.48
2023-09-04T05:53:35.373Z,101484.54
2023-09-04T05:56:12.126Z,101480.38
2023-09-04T05:58:48.690Z,101480.05
2023-09-04T06:01:20.671Z,101478.89
2023-09-04T06:03:51.226Z,101479.13
2023-09-04T06:06:22.036Z,101474.89
2023-09-04T06:08:52.501Z,101472.17
2023-09-04T06:11:22.977Z,101475.17
2023-09-04T06:13:53.443Z,101480.09
2023-09-04T06:16:23.942Z,101480.16
2023-09-04T06:18:54.455Z,101481.61
2023-09-04T06:21:25.024Z,101480.48
2023-09-04T06:23:55.462Z,101481.35
2023-09-04T06:26:25.947Z,101482.24
2023-09-04T06:28:56.438Z,101479.87
2023-09-04T06:31:26.987Z,101480.08
2023-09-04T06:33:57.938Z,101478.91
2023-09-04T06:36:28.896Z,101480.16
2023-09-04T06:38:59.417Z,101485.58
2023-09-04T06:41:29.963Z,101484.43
2023-09-04T06:44:00.698Z,101489.85
2023-09-04T06:46:31.286Z,101493.02
2023-09-04T06:49:01.802Z,101494.64
2023-09-04T06:51:33.122Z,101493.98
2023-09-04T06:54:04.971Z,101495.54
2023-09-04T06:56:35.477Z,101491.89
2023-09-04T06:59:06.713Z,101490.00
2023-09-04T07:01:37.232Z,101491.75
2023-09-04T07:04:08.224Z,101494.23
2023-09-04T07:06:39.271Z,101490.81
2023-09-04T07:09:09.816Z,101486.70
2023-09-04T07:11:40.327Z,101489.14
2023-09-04T07:14:10.765Z,101488.62
2023-09-04T07:16:47.272Z,101488.43
2023-09-04T07:19:21.186Z,101490.13
2023-09-04T07:21:51.693Z,101493.91
2023-09-04T07:24:22.215Z,101498.56
2023-09-04T07:26:52.735Z,101503.39
2023-09-04T07:29:23.644Z,101502.88
2023-09-04T07:31:55.282Z,101500.52
2023-09-04T07:34:26.003Z,101502.45
2023-09-04T07:36:56.588Z,101504.20
2023-09-04T07:39:27.106Z,101507.34
2023-09-04T07:41:59.517Z,101504.04
2023-09-04T07:44:30.040Z,101506.45
2023-09-04T07:47:00.495Z,101507.82
2023-09-04T07:49:31.067Z,101505.05
2023-09-04T07:52:01.655Z,101501.09
2023-09-04T07:54:32.209Z,101498.54
2023-09-04T07:57:05.651Z,101504.14
2023-09-04T07:59:36.292Z,101504.86
2023-09-04T08:02:07.134Z,101501.80
2023-09-04T08:04:37.659Z,101502.55
2023-09-04T08:07:08.363Z,101503.48
2023-09-04T08:09:38.867Z,101503.50
2023-09-04T08:12:10.093Z,101502.11
2023-09-04T08:14:40.564Z,101507.15
2023-09-04T08:17:11.060Z,101504.23
2023-09-04T08:19:41.579Z,101508.61
2023-09-04T08:22:12.086Z,101515.60
2023-09-04T08:24:42.593Z,101518.91
2023-09-04T08:27:13.108Z,101521.04
2023-09-04T08:29:43.592Z,101528.35
2023-09-04T08:32:14.156Z,101528.04
2023-09-04T08:34:44.683Z,101531.34
2023-09-04T08:37:15.249Z,101523.92
2023-09-04T08:39:45.733Z,101524.34
2023-09-04T08:42:16.401Z,101526.30
2023-09-04T08:44:49.307Z,101526.69
2023-09-04T08:47:23.304Z,101523.10
2023-09-04T08:49:54.806Z,101524.54
2023-09-04T08:52:25.771Z,101521.43
2023-09-04T08:54:57.045Z,101518.19
2023-09-04T08:57:29.302Z,101520.47
2023-09-04T08:59:59.786Z,101519.12
2023-09-04T09:02:31.168Z,101518.45
2023-09-04T09:05:02.654Z,101520.71
2023-09-04T09:07:33.894Z,101520.19
2023-09-04T09:10:08.720Z,101525.25
2023-09-04T09:12:39.225Z,101522.38
2023-09-04T09:15:11.347Z,101520.68
2023-09-04T09:17:54.485Z,101521.59
2023-09-04T09:20:35.174Z,101520.97
2023-09-04T09:23:07.137Z,101513.41
2023-09-04T09:25:39.384Z,101513.14
2023-09-04T09:28:11.009Z,101509.35
2023-09-04T09:30:42.800Z,101507.16
2023-09-04T09:33:14.508Z,101504.99
2023-09-04T09:35:44.107Z,101510.55
2023-09-04T09:38:14.588Z,101509.69
2023-09-04T09:40:47.585Z,101513.02
2023-09-04T09:43:19.286Z,101511.83
2023-09-04T09:45:51.436Z,101513.76
2023-09-04T09:48:25.612Z,101516.54
2023-09-04T09:50:56.798Z,101511.17
2023-09-04T09:53:27.252Z,101510.32
2023-09-04T09:55:58.372Z,101507.41
2023-09-04T09:58:29.134Z,101505.35
2023-09-04T10:00:59.734Z,101500.67
2023-09-04T10:03:30.425Z,101502.44
2023-09-04T10:06:05.405Z,101498.99
2023-09-04T10:08:39.770Z,101497.80
2023-09-04T10:11:13.064Z,101497.85
2023-09-04T10:14:04.939Z,101499.59
2023-09-04T10:16:42.978Z,101497.54
2023-09-04T10:19:19.398Z,101498.57
2023-09-04T10:22:00.342Z,101492.55
2023-09-04T10:24:43.031Z,101488.79
2023-09-04T10:27:16.032Z,101486.89
2023-09-04T10:29:56.747Z,101490.76
2023-09-04T10:32:29.043Z,101485.44
2023-09-04T10:35:00.150Z,101478.35
2023-09-04T10:37:33.214Z,101478.23
2023-09-04T10:40:04.645Z,101478.77
2023-09-04T10:42:36.174Z,101477.79
2023-09-04T10:45:16.729Z,101470.88
2023-09-04T10:47:51.866Z,101466.77
2023-09-04T10:50:35.574Z,101461.60
2023-09-04T10:53:08.153Z,101464.63
2023-09-04T10:55:40.195Z,101456.85
2023-09-04T10:58:12.256Z,101454.99
2023-09-04T11:00:44.858Z,101457.24
2023-09-04T11:03:23.888Z,101450.84
2023-09-04T11:06:21.414Z,101447.56
2023-09-04T11:08:55.308Z,101448.46
2023-09-04T11:11:28.638Z,101450.39
2023-09-04T11:14:04.148Z,101446.95
2023-09-04T11:16:40.479Z,101451.67
2023-09-04T11:19:17.649Z,101451.52
2023-09-04T11:21:48.847Z,101447.04
2023-09-04T11:24:21.673Z,101443.25
2023-09-04T11:26:52.150Z,101446.06
2023-09-04T11:29:22.724Z,101445.38
2023-09-04T11:33:21.831Z,101449.35
2023-09-04T11:34:47.036Z,101451.09
2023-09-04T11:37:17.974Z,101447.28
2023-09-04T11:40:02.931Z,101446.09
2023-09-04T11:42:36.748Z,101451.30
2023-09-04T11:45:09.204Z,101455.14
2023-09-04T11:47:41.267Z,101452.55
2023-09-04T11:50:18.428Z,101453.09
2023-09-04T11:52:49.853Z,101454.33
2023-09-04T11:55:23.397Z,101449.48
2023-09-04T11:57:53.959Z,101453.14
2023-09-04T12:00:24.825Z,101449.35
2023-09-04T12:02:55.451Z,101453.17
2023-09-04T12:05:27.064Z,101451.61
2023-09-04T12:07:57.885Z,101452.81
2023-09-04T12:10:28.726Z,101447.80
2023-09-04T12:12:59.699Z,101448.85
2023-09-04T12:15:31.488Z,101443.99
2023-09-04T12:18:03.496Z,101442.08
2023-09-04T12:20:37.194Z,101439.45
2023-09-04T12:23:08.244Z,101438.77
2023-09-04T12:25:41.009Z,101437.74
2023-09-04T12:28:12.930Z,101436.70
2023-09-04T12:30:45.544Z,101432.70
2023-09-04T12:33:18.158Z,101433.92
2023-09-04T12:35:57.902Z,101429.05
2023-09-04T12:38:28.642Z,101426.30
2023-09-04T12:41:00.416Z,101422.64
2023-09-04T12:43:31.227Z,101414.12
2023-09-04T12:46:02.496Z,101417.25
2023-09-04T12:48:33.572Z,101415.86
2023-09-04T12:51:04.240Z,101413.95
2023-09-04T12:53:35.040Z,101415.16
2023-09-04T12:56:05.735Z,101411.85
2023-09-04T12:58:37.554Z,101411.34
2023-09-04T13:01:08.197Z,101417.59
2023-09-04T13:03:38.731Z,101414.46
2023-09-04T13:06:09.398Z,101412.02
2023-09-04T13:08:39.879Z,101408.90
2023-09-04T13:11:10.377Z,101406.98
2023-09-04T13:13:42.762Z,101401.77
2023-09-04T13:16:13.336Z,101400.02
2023-09-04T13:18:43.822Z,101395.85
2023-09-04T13:21:14.468Z,101392.02
2023-09-04T13:23:45.297Z,101388.36
2023-09-04T13:26:15.787Z,101387.15
2023-09-04T13:28:46.649Z,101385.41
2023-09-04T13:31:20.075Z,101381.59
2023-09-04T13:33:50.768Z,101381.23
2023-09-04T13:36:21.230Z,101387.15
2023-09-04T13:38:51.699Z,101387.14
2023-09-04T13:41:22.153Z,101385.59
2023-09-04T13:43:56.871Z,101387.17
2023-09-04T13:46:27.444Z,101382.14
2023-09-04T13:48:58.119Z,101383.17
2023-09-04T13:51:28.554Z,101387.00
2023-09-04T13:53:59.047Z,101383.52
2023-09-04T13:56:29.563Z,101375.86
2023-09-04T13:59:00.027Z,101374.11
2023-09-04T14:01:30.536Z,101367.83
2023-09-04T14:04:01.158Z,101365.03
2023-09-04T14:06:31.700Z,101364.84
2023-09-04T14:09:02.200Z,101364.48
2023-09-04T14:11:32.744Z,101370.73
2023-09-04T14:14:03.355Z,101367.24
2023-09-04T14:16:33.913Z,101373.36
2023-09-04T14:19:04.943Z,101374.58
2023-09-04T14:21:35.915Z,101370.92
2023-09-04T14:24:07.347Z,101363.23
2023-09-04T14:26:37.845Z,101365.15
2023-09-04T14:29:08.345Z,101362.51
2023-09-04T14:31:38.857Z,101360.41
2023-09-04T14:38:23.336Z,101354.80
2023-09-04T14:40:55.671Z,101352.89
2023-09-04T14:43:26.409Z,101352.55
2023-09-04T14:46:09.261Z,101350.30
2023-09-04T14:48:40.862Z,101352.02
2023-09-04T14:51:11.321Z,101353.05
2023-09-04T14:53:42.334Z,101350.98
2023-09-04T14:56:12.817Z,101356.02
2023-09-04T14:58:43.300Z,101353.23
2023-09-04T15:01:18.006Z,101354.97
2023-09-04T15:03:50.031Z,101354.48
2023-09-04T15:06:20.868Z,101356.76
2023-09-04T15:08:51.441Z,101356.41
2023-09-04T15:11:21.989Z,101357.11
2023-09-04T15:13:52.450Z,101351.36
2023-09-04T15:16:23.352Z,101352.05
2023-09-04T15:18:53.937Z,101350.16
2023-09-04T15:21:24.432Z,101347.23
2023-09-04T15:23:54.991Z,101343.40
2023-09-04T15:26:25.787Z,101344.09
2023-09-04T15:28:56.295Z,101336.26
2023-09-04T15:31:29.445Z,101337.83
2023-09-04T15:33:59.898Z,101335.55
2023-09-04T15:36:30.425Z,101335.91
2023-09-04T15:39:00.919Z,101338.52
2023-09-04T15:41:31.565Z,101339.39
2023-09-04T15:44:02.168Z,101346.35
2023-09-04T15:46:33.078Z,101347.39
2023-09-04T15:49:04.127Z,101346.02
2023-09-04T15:51:34.640Z,101347.05
2023-09-04T15:54:05.327Z,101342.70
2023-09-04T15:56:35.826Z,101344.27
2023-09-04T15:59:06.360Z,101341.66
2023-09-04T16:01:36.962Z,101342.35
2023-09-04T16:04:08.887Z,101344.09
2023-09-04T16:06:39.362Z,101339.40
2023-09-04T16:09:09.937Z,101342.35
2023-09-04T16:11:40.445Z,101341.48
2023-09-04T16:14:10.907Z,101342.35
2023-09-04T16:16:41.984Z,101341.48
2023-09-04T16:19:13.919Z,101341.83
2023-09-04T16:21:44.455Z,101346.04
2023-09-04T16:24:15.085Z,101346.21
2023-09-04T16:26:45.551Z,101340.48
2023-09-04T16:29:17.149Z,101342.57
2023-09-04T16:31:46.104Z,101342.73
2023-09-04T16:34:17.004Z,101341.02
2023-09-04T16:36:47.501Z,101344.34
2023-09-04T16:39:18.015Z,101349.73
2023-09-04T16:41:48.695Z,101349.90
2023-09-04T16:44:19.206Z,101351.12
2023-09-04T16:46:50.764Z,101353.21
2023-09-04T16:49:21.624Z,101350.41
2023-09-04T16:51:56.955Z,101349.02
2023-09-04T16:54:28.671Z,101349.21
2023-09-04T16:56:59.712Z,101347.98
2023-09-04T16:59:30.265Z,101346.09
2023-09-04T17:02:00.775Z,101346.98
2023-09-04T17:04:31.244Z,101348.71
2023-09-04T17:07:01.756Z,101350.98
2023-09-04T17:09:32.250Z,101353.58
2023-09-04T17:12:02.819Z,101351.84
2023-09-04T17:14:33.304Z,101355.33
2023-09-04T17:17:03.781Z,101355.15
2023-09-04T17:19:34.442Z,101353.77
2023-09-04T17:22:05.129Z,101357.61
2023-09-04T17:24:35.645Z,101357.27
2023-09-04T17:27:08.105Z,101354.83
2023-09-04T17:29:38.660Z,101356.04
2023-09-04T17:32:09.475Z,101360.21
2023-09-04T17:34:41.536Z,101355.69
2023-09-04T17:37:12.089Z,101354.12
2023-09-04T17:39:42.690Z,101351.36
2023-09-04T17:42:15.129Z,101352.41
2023-09-04T17:44:45.795Z,101354.33
2023-09-04T17:47:16.431Z,101355.86
2023-09-04T17:49:46.913Z,101350.80
2023-09-04T17:52:17.378Z,101350.98
2023-09-04T17:54:47.851Z,101350.29
2023-09-04T17:57:18.386Z,101354.13
2023-09-04T17:59:49.249Z,101357.42
2023-09-04T18:02:20.115Z,101358.29
2023-09-04T18:04:50.615Z,101362.29
2023-09-04T18:07:21.140Z,101365.41
2023-09-04T18:09:51.644Z,101362.64
2023-09-04T18:12:22.136Z,101362.98
2023-09-04T18:14:52.738Z,101366.66
2023-09-04T18:17:23.285Z,101367.00
2023-09-04T18:19:53.784Z,101370.65
2023-09-04T18:22:24.637Z,101369.42
2023-09-04T18:24:55.395Z,101373.42
2023-09-04T18:27:26.044Z,101372.90
2023-09-04T18:29:56.614Z,101371.68
2023-09-04T18:32:27.147Z,101367.68
2023-09-04T18:34:57.792Z,101367.69
2023-09-04T18:37:28.317Z,101369.79
2023-09-04T18:39:58.806Z,101374.83
2023-09-04T18:42:29.347Z,101377.95
2023-09-04T18:45:00.633Z,101374.64
2023-09-04T18:47:56.461Z,101383.86
2023-09-04T18:50:26.973Z,101381.60
2023-09-04T18:52:58.455Z,101381.25
2023-09-04T18:55:28.997Z,101380.38
2023-09-04T18:57:59.530Z,101376.91
2023-09-04T19:00:30.139Z,101383.52
2023-09-04T19:03:00.729Z,101383.51
2023-09-04T19:05:31.519Z,101384.03
2023-09-04T19:08:02.014Z,101385.42
2023-09-04T19:10:32.561Z,101382.29
2023-09-04T19:13:03.505Z,101381.06
2023-09-04T19:15:34.234Z,101380.89
2023-09-04T19:18:04.961Z,101379.67
2023-09-04T19:20:35.896Z,101385.58
2023-09-04T19:23:06.737Z,101384.73
2023-09-04T19:25:37.284Z,101381.77
2023-09-04T19:28:08.616Z,101382.64
2023-09-04T19:30:39.227Z,101380.20
2023-09-04T19:33:09.724Z,101376.56
2023-09-04T19:35:40.246Z,101379.16
2023-09-04T19:38:10.709Z,101381.08
2023-09-04T19:40:41.304Z,101378.98
2023-09-04T19:43:11.838Z,101379.15
2023-09-04T19:45:42.357Z,101380.19
2023-09-04T19:48:12.828Z,101379.84
2023-09-04T19:50:43.329Z,101371.85
2023-09-04T19:53:13.826Z,101372.89
2023-09-04T19:55:44.279Z,101375.32
2023-09-04T19:58:14.788Z,101377.92
2023-09-04T20:00:45.292Z,101385.57
2023-09-04T20:03:15.939Z,101386.98
2023-09-04T20:05:46.467Z,101385.77
2023-09-04T20:08:16.984Z,101384.20
2023-09-04T20:10:47.503Z,101383.33
2023-09-04T20:13:18.098Z,101379.67
2023-09-04T20:15:48.641Z,101381.77
2023-09-04T20:18:19.242Z,101385.40
2023-09-04T20:20:49.740Z,101384.19
2023-09-04T20:23:20.273Z,101381.40
2023-09-04T20:25:50.725Z,101381.58
2023-09-04T20:28:21.179Z,101384.17
2023-09-04T20:30:54.850Z,101382.10
2023-09-04T20:33:26.800Z,101384.86
2023-09-04T20:35:57.514Z,101383.82
2023-09-04T20:38:28.152Z,101382.27
2023-09-04T20:40:58.725Z,101383.66
2023-09-04T20:43:29.231Z,101387.48
2023-09-04T20:45:59.756Z,101386.78
2023-09-04T20:48:30.857Z,101384.34
2023-09-04T20:51:01.389Z,101385.04
2023-09-04T20:53:31.977Z,101384.67
2023-09-04T20:56:04.461Z,101388.49
2023-09-04T20:58:35.041Z,101389.70
2023-09-04T21:01:05.605Z,101389.55
2023-09-04T21:03:36.058Z,101391.29
2023-09-04T21:06:07.628Z,101386.25
2023-09-04T21:08:37.141Z,101386.23
2023-09-04T21:11:08.831Z,101388.66
2023-09-04T21:13:57.032Z,101389.17
2023-09-04T21:16:45.139Z,101387.27
2023-09-04T21:19:33.372Z,101383.09
2023-09-04T21:22:21.914Z,101380.66
2023-09-04T21:25:09.902Z,101382.38
2023-09-04T21:27:57.947Z,101381.67
2023-09-04T21:30:46.009Z,101383.22
2023-09-04T21:33:34.200Z,101380.08
2023-09-04T21:36:22.692Z,101390.84
2023-09-04T21:39:10.766Z,101389.46
2023-09-04T21:41:59.231Z,101389.27
2023-09-04T21:44:47.634Z,101387.52
2023-09-04T21:47:35.689Z,101390.46
2023-09-04T21:50:24.857Z,101397.58
2023-09-04T21:53:13.525Z,101396.89
2023-09-04T21:56:05.265Z,101398.27
2023-09-04T21:58:53.813Z,101395.64
2023-09-04T22:01:41.733Z,101397.71
2023-09-04T22:04:29.758Z,101398.56
2023-09-04T22:07:17.712Z,101394.23
2023-09-04T22:10:06.169Z,101397.55
2023-09-04T22:12:53.979Z,101397.88
2023-09-04T22:15:42.175Z,101399.08
2023-09-04T22:18:41.263Z,101399.23
2023-09-04T22:21:29.272Z,101396.45
2023-09-04T22:24:17.221Z,101394.36
2023-09-04T22:27:05.814Z,101399.20
2023-09-04T22:29:54.453Z,101399.88
2023-09-04T22:32:42.898Z,101400.74
2023-09-04T22:35:30.890Z,101402.48
2023-09-04T22:38:19.082Z,101401.45
2023-09-04T22:41:07.116Z,101403.35
2023-09-04T22:43:54.990Z,101400.91
2023-09-04T22:46:43.547Z,101399.86
2023-09-04T22:49:32.015Z,101396.73
2023-09-04T22:52:19.990Z,101397.25
2023-09-04T22:55:08.410Z,101394.63
2023-09-04T22:57:57.601Z,101389.77
2023-09-04T23:00:46.204Z,101388.56
2023-09-04T23:03:35.071Z,101379.18
2023-09-04T23:06:23.276Z,101378.48
2023-09-04T23:09:11.096Z,101382.13
2023-09-04T23:11:59.294Z,101384.74
2023-09-04T23:14:47.149Z,101378.48
2023-09-04T23:17:35.721Z,101376.40
2023-09-04T23:20:26.145Z,101375.36
2023-09-04T23:22:56.869Z,101374.31
2023-09-04T23:25:30.205Z,101380.39
2023-09-04T23:28:05.361Z,101380.73
2023-09-04T23:30:38.938Z,101374.14
2023-09-04T23:33:20.549Z,101372.40
2023-09-04T23:36:16.796Z,101371.38
2023-09-04T23:39:09.430Z,101372.39
2023-09-04T23:41:57.871Z,101373.23
2023-09-04T23:44:45.865Z,101370.45
2023-09-04T23:47:17.355Z,101368.35
2023-09-04T23:49:47.827Z,101362.61
2023-09-04T23:52:19.037Z,101361.38
2023-09-04T23:54:50.152Z,101358.40
2023-09-04T23:57:20.636Z,101357.52
2023-09-04T23:59:51.082Z,101357.15
